Terminal Aerodrome Forecast
Issued by NWS Cleveland, OH

Home | Current Version | Previous Version | Graphics & Text | Print | Product List | Glossary On
Versions: 1 2 3 4 5 6 7 8 9 10 11 12 13 14 15 16 17 18 19 20 21 22
498
FTUS41 KCLE 172343
TAFTOL
TAF
KTOL 172343Z 1800/1824 21004KT P6SM -SN OVC025
     FM180200 25005KT 4SM -SN OVC015
     FM180500 27007KT P6SM OVC015
     FM180800 27007KT P6SM OVC025
     FM181300 19005KT P6SM SKC=

USA.gov is the U.S. government's official web portal to all federal, state and local government web resources and services.